Time;durP1;ratioP1;P1;durP2;ratioP2;P2;SDS_P1;SDS_P2;PMS_P1;PMS_P2;Temp;Humidity;BMP_temperature;BMP_pressure;BME280_temperature;BME280_humidity;BME280_pressure;Samples;Min_cycle;Max_cycle;Signal;HPM_P1;HPM_P2
2022/05/09 00:01:32;;;;;;;4.95;1.90;;;;;;;;;;5051057;28;20053;-67
2022/05/09 00:03:58;;;;;;;5.45;1.90;;;;;;;;;;5050911;28;20029;-70
2022/05/09 00:06:24;;;;;;;3.38;1.70;;;;;;;;;;5050947;28;20079;-67
2022/05/09 00:08:50;;;;;;;2.95;1.60;;;;;;;;;;5051044;28;20029;-66
2022/05/09 00:11:15;;;;;;;3.75;1.70;;;;;;;;;;5050900;28;20064;-67
2022/05/09 00:13:42;;;;;;;2.92;1.60;;;;;;;;;;5050877;28;20162;-70
2022/05/09 00:16:07;;;;;;;3.47;1.55;;;;;;;;;;5050668;28;20028;-67
2022/05/09 00:18:33;;;;;;;4.22;1.75;;;;;;;;;;5051489;28;20117;-66
2022/05/09 00:20:58;;;;;;;4.65;1.50;;;;;;;;;;5050808;28;20103;-68
2022/05/09 00:23:24;;;;;;;4.18;1.50;;;;;;;;;;5050796;28;20025;-71
2022/05/09 00:25:49;;;;;;;3.00;1.40;;;;;;;;;;5050491;28;20055;-68
2022/05/09 00:28:15;;;;;;;3.55;1.50;;;;;;;;;;5050620;28;20033;-69
2022/05/09 00:30:40;;;;;;;6.85;1.75;;;;;;;;;;5050643;28;20396;-68
2022/05/09 00:33:06;;;;;;;3.03;1.38;;;;;;;;;;5050341;28;20100;-66
2022/05/09 00:35:32;;;;;;;5.10;1.60;;;;;;;;;;5050663;28;20029;-69
2022/05/09 00:37:57;;;;;;;4.85;1.80;;;;;;;;;;5050805;28;20029;-70
2022/05/09 00:40:23;;;;;;;3.83;1.70;;;;;;;;;;5050427;28;20036;-66
2022/05/09 00:42:51;;;;;;;3.22;1.40;;;;;;;;;;5049826;28;20068;-67
2022/05/09 00:45:19;;;;;;;2.97;1.42;;;;;;;;;;5050210;28;20464;-70
2022/05/09 00:47:44;;;;;;;3.88;1.60;;;;;;;;;;5050147;28;20037;-67
2022/05/09 00:50:12;;;;;;;5.10;1.70;;;;;;;;;;5050301;28;20032;-67
2022/05/09 00:52:43;;;;;;;4.22;1.70;;;;;;;;;;5050010;28;20083;-69
2022/05/09 00:55:23;;;;;;;2.95;1.45;;;;;;;;;;5050403;28;20028;-69
2022/05/09 00:58:15;;;;;;;3.37;1.50;;;;;;;;;;5050204;28;20029;-69
2022/05/09 01:00:44;;;;;;;2.95;1.60;;;;;;;;;;5049585;28;20053;-69
2022/05/09 01:03:35;;;;;;;3.60;1.50;;;;;;;;;;5049865;28;20028;-67
2022/05/09 01:06:00;;;;;;;6.15;1.50;;;;;;;;;;5049951;28;20043;-67
2022/05/09 01:08:26;;;;;;;2.70;1.38;;;;;;;;;;5050570;28;20025;-68
2022/05/09 01:10:54;;;;;;;2.65;1.48;;;;;;;;;;5050059;28;20017;-66
2022/05/09 01:13:22;;;;;;;5.18;1.40;;;;;;;;;;5049663;28;20028;-67
2022/05/09 01:15:51;;;;;;;3.63;1.70;;;;;;;;;;5049902;28;20068;-67
2022/05/09 01:18:16;;;;;;;5.15;1.77;;;;;;;;;;5049549;28;20044;-69
2022/05/09 01:20:43;;;;;;;3.15;1.58;;;;;;;;;;5050000;28;20061;-70
2022/05/09 01:23:10;;;;;;;4.07;1.80;;;;;;;;;;5049575;28;20013;-68
2022/05/09 01:25:36;;;;;;;3.90;1.75;;;;;;;;;;5049844;28;20053;-67
2022/05/09 01:28:02;;;;;;;3.28;1.58;;;;;;;;;;5049719;28;20029;-66
2022/05/09 01:30:38;;;;;;;2.20;1.38;;;;;;;;;;5050283;28;20100;-69
2022/05/09 01:33:05;;;;;;;4.38;1.73;;;;;;;;;;5049344;28;20104;-65
2022/05/09 01:35:38;;;;;;;3.35;1.40;;;;;;;;;;5049694;28;20079;-68
2022/05/09 01:38:07;;;;;;;3.20;1.35;;;;;;;;;;5049506;28;20021;-67
2022/05/09 01:40:32;;;;;;;4.40;1.50;;;;;;;;;;5049861;28;20033;-70
2022/05/09 01:42:58;;;;;;;3.15;1.50;;;;;;;;;;5049331;28;20044;-70
2022/05/09 01:45:23;;;;;;;2.55;1.50;;;;;;;;;;5053036;28;20025;-67
2022/05/09 01:50:33;;;;;;;3.38;1.30;;;;;;;;;;5053870;28;20055;-66
2022/05/09 01:52:58;;;;;;;3.83;1.48;;;;;;;;;;5053290;28;20473;-69
2022/05/09 01:55:25;;;;;;;5.07;1.40;;;;;;;;;;5053716;28;20021;-68
2022/05/09 01:57:50;;;;;;;2.72;1.35;;;;;;;;;;5053452;28;20029;-70
2022/05/09 02:00:17;;;;;;;3.83;1.58;;;;;;;;;;5053557;28;20028;-67
2022/05/09 02:02:43;;;;;;;2.05;1.17;;;;;;;;;;5053198;28;20159;-66
2022/05/09 02:05:09;;;;;;;4.75;1.55;;;;;;;;;;5053536;28;20055;-70
2022/05/09 02:07:37;;;;;;;3.38;1.10;;;;;;;;;;5053195;28;20048;-70
2022/05/09 02:10:04;;;;;;;2.70;1.10;;;;;;;;;;5053438;28;20065;-67
2022/05/09 02:12:29;;;;;;;2.65;1.17;;;;;;;;;;5052851;28;20029;-69
2022/05/09 02:14:54;;;;;;;2.80;1.20;;;;;;;;;;5053163;28;20055;-69
2022/05/09 02:17:20;;;;;;;3.60;1.40;;;;;;;;;;5053452;28;20058;-70
2022/05/09 02:19:46;;;;;;;3.05;1.40;;;;;;;;;;5053613;28;20101;-66
2022/05/09 02:22:12;;;;;;;2.92;1.25;;;;;;;;;;5053004;28;20508;-66
2022/05/09 02:24:41;;;;;;;3.60;1.27;;;;;;;;;;5052966;28;20163;-68
2022/05/09 02:27:09;;;;;;;4.00;1.27;;;;;;;;;;5052720;28;20080;-66
2022/05/09 02:29:37;;;;;;;3.47;1.30;;;;;;;;;;5052976;28;20158;-69
2022/05/09 02:32:05;;;;;;;2.28;1.13;;;;;;;;;;5052927;28;20028;-68
2022/05/09 02:34:30;;;;;;;3.00;1.40;;;;;;;;;;5052841;28;20017;-65
2022/05/09 02:36:56;;;;;;;2.50;1.23;;;;;;;;;;5052943;28;20104;-68
2022/05/09 02:39:21;;;;;;;2.50;1.20;;;;;;;;;;5052730;28;20017;-67
2022/05/09 02:41:48;;;;;;;3.63;1.30;;;;;;;;;;5053025;28;20036;-69
2022/05/09 02:44:13;;;;;;;5.45;1.50;;;;;;;;;;5052235;28;20044;-69
2022/05/09 02:46:42;;;;;;;3.90;1.27;;;;;;;;;;5052533;28;20029;-70
2022/05/09 02:49:08;;;;;;;2.80;1.30;;;;;;;;;;5052455;28;20029;-70
2022/05/09 02:51:33;;;;;;;3.15;1.40;;;;;;;;;;5052813;28;20029;-69
2022/05/09 02:53:59;;;;;;;3.05;1.17;;;;;;;;;;5052314;28;20024;-68
2022/05/09 02:56:25;;;;;;;2.97;1.20;;;;;;;;;;5052516;28;20201;-68
2022/05/09 02:58:50;;;;;;;4.20;1.38;;;;;;;;;;5052504;28;20025;-67
2022/05/09 03:01:16;;;;;;;4.82;1.40;;;;;;;;;;5052311;28;20074;-66
2022/05/09 03:06:25;;;;;;;3.13;1.30;;;;;;;;;;5052567;28;20511;-66
2022/05/09 03:08:51;;;;;;;3.42;1.50;;;;;;;;;;5052360;28;20025;-66
2022/05/09 03:11:16;;;;;;;2.28;1.23;;;;;;;;;;5052574;28;20276;-67
2022/05/09 03:13:42;;;;;;;3.83;1.67;;;;;;;;;;5051949;28;20580;-66
2022/05/09 03:16:09;;;;;;;3.75;1.40;;;;;;;;;;5052480;28;20025;-69
2022/05/09 03:18:36;;;;;;;2.67;1.40;;;;;;;;;;5052260;28;20025;-70
2022/05/09 03:21:01;;;;;;;2.10;1.35;;;;;;;;;;5052101;28;20028;-66
2022/05/09 03:23:27;;;;;;;3.38;1.60;;;;;;;;;;5051826;28;20024;-70
2022/05/09 03:25:52;;;;;;;3.45;1.30;;;;;;;;;;5051847;28;20039;-65
2022/05/09 03:28:21;;;;;;;4.20;1.40;;;;;;;;;;5051672;28;20017;-69
2022/05/09 03:30:48;;;;;;;2.83;1.25;;;;;;;;;;5051746;28;20032;-67
2022/05/09 03:33:14;;;;;;;5.38;1.52;;;;;;;;;;5051279;28;20541;-71
2022/05/09 03:35:40;;;;;;;3.08;1.40;;;;;;;;;;5051618;28;20017;-70
2022/05/09 03:38:05;;;;;;;3.78;1.20;;;;;;;;;;5051376;28;20024;-67
2022/05/09 03:40:31;;;;;;;3.63;1.27;;;;;;;;;;5051711;28;20025;-67
2022/05/09 03:42:59;;;;;;;3.33;1.40;;;;;;;;;;5051384;28;20106;-68
2022/05/09 03:45:25;;;;;;;3.50;1.20;;;;;;;;;;5051349;28;20048;-69
2022/05/09 03:47:51;;;;;;;2.72;1.30;;;;;;;;;;5051600;28;20033;-68
2022/05/09 03:50:16;;;;;;;2.85;1.27;;;;;;;;;;5051714;28;20028;-66
2022/05/09 03:52:41;;;;;;;3.90;1.60;;;;;;;;;;5051520;28;20025;-68
2022/05/09 03:55:07;;;;;;;3.80;1.30;;;;;;;;;;5050898;28;20047;-69
2022/05/09 03:57:33;;;;;;;3.33;1.20;;;;;;;;;;5051481;28;20139;-69
2022/05/09 04:00:07;;;;;;;2.13;1.20;;;;;;;;;;5051069;28;20029;-65
2022/05/09 04:02:32;;;;;;;2.53;1.35;;;;;;;;;;5033562;28;20041;-70
2022/05/09 04:04:57;;;;;;;3.65;1.27;;;;;;;;;;5050863;28;20033;-69
2022/05/09 04:07:23;;;;;;;1.95;1.40;;;;;;;;;;5032544;28;20395;-69
2022/05/09 04:09:48;;;;;;;2.47;1.20;;;;;;;;;;5050939;28;20056;-66
2022/05/09 04:12:14;;;;;;;3.60;1.08;;;;;;;;;;5051328;28;20540;-69
2022/05/09 04:17:24;;;;;;;4.30;1.40;;;;;;;;;;5051157;28;20027;-69
2022/05/09 04:19:50;;;;;;;3.75;1.35;;;;;;;;;;5051184;28;20035;-66
2022/05/09 04:22:15;;;;;;;2.75;1.20;;;;;;;;;;5050984;28;20021;-67
2022/05/09 04:24:41;;;;;;;6.72;1.70;;;;;;;;;;5050704;28;20036;-68
2022/05/09 04:27:06;;;;;;;3.03;1.30;;;;;;;;;;5050719;28;20264;-68
2022/05/09 04:29:32;;;;;;;2.50;1.30;;;;;;;;;;5050283;28;20040;-69
2022/05/09 04:31:58;;;;;;;3.63;1.42;;;;;;;;;;5050718;28;20028;-70
2022/05/09 04:34:23;;;;;;;4.88;1.80;;;;;;;;;;5050413;28;20024;-71
2022/05/09 04:36:49;;;;;;;3.90;1.40;;;;;;;;;;5050779;28;20029;-67
2022/05/09 04:39:16;;;;;;;2.85;1.45;;;;;;;;;;5050439;28;20056;-70
2022/05/09 04:41:42;;;;;;;2.67;1.30;;;;;;;;;;5050454;28;20029;-68
2022/05/09 04:44:08;;;;;;;2.17;1.25;;;;;;;;;;5050071;28;20029;-66
2022/05/09 04:46:34;;;;;;;2.60;1.40;;;;;;;;;;5050155;28;20056;-69
2022/05/09 04:48:59;;;;;;;2.97;1.38;;;;;;;;;;5050284;28;20455;-66
2022/05/09 04:51:25;;;;;;;3.17;1.48;;;;;;;;;;5050538;28;20029;-71
2022/05/09 04:53:50;;;;;;;3.47;1.27;;;;;;;;;;5050083;28;20134;-67
2022/05/09 04:56:16;;;;;;;2.33;1.20;;;;;;;;;;5050788;28;20431;-67
2022/05/09 04:58:42;;;;;;;4.32;1.30;;;;;;;;;;5050215;28;20025;-70
2022/05/09 05:01:08;;;;;;;2.58;1.25;;;;;;;;;;5050066;28;20415;-69
2022/05/09 05:03:34;;;;;;;3.47;1.20;;;;;;;;;;5049959;28;20029;-66
2022/05/09 05:05:59;;;;;;;3.50;1.35;;;;;;;;;;5049742;28;20033;-70
2022/05/09 05:08:25;;;;;;;6.10;1.42;;;;;;;;;;5050288;28;20067;-70
2022/05/09 05:10:53;;;;;;;2.75;1.30;;;;;;;;;;5049970;28;20108;-71
2022/05/09 05:13:22;;;;;;;4.38;1.52;;;;;;;;;;5050259;28;20029;-68
2022/05/09 05:15:48;;;;;;;2.22;1.20;;;;;;;;;;5049409;28;20029;-69
2022/05/09 05:18:20;;;;;;;3.75;1.30;;;;;;;;;;5049998;28;20029;-70
2022/05/09 05:20:46;;;;;;;3.28;1.30;;;;;;;;;;5049447;28;20432;-67
2022/05/09 05:23:12;;;;;;;3.33;1.20;;;;;;;;;;5049873;28;20029;-69
2022/05/09 05:25:40;;;;;;;3.72;1.17;;;;;;;;;;5031650;28;20033;-70
2022/05/09 05:28:06;;;;;;;4.22;1.40;;;;;;;;;;5049686;28;20524;-69
2022/05/09 05:30:32;;;;;;;5.72;1.23;;;;;;;;;;5049571;28;20473;-67
2022/05/09 05:32:58;;;;;;;3.40;1.30;;;;;;;;;;5049884;28;20029;-67
2022/05/09 05:35:24;;;;;;;7.50;1.50;;;;;;;;;;5049197;28;20033;-70
2022/05/09 05:37:50;;;;;;;4.18;1.48;;;;;;;;;;5049567;28;20075;-67
2022/05/09 05:40:17;;;;;;;4.88;1.33;;;;;;;;;;5048650;28;20124;-66
2022/05/09 05:42:44;;;;;;;1.83;1.20;;;;;;;;;;5048817;28;20048;-69
2022/05/09 05:45:12;;;;;;;5.00;1.50;;;;;;;;;;5048330;28;20396;-69
2022/05/09 05:47:38;;;;;;;5.95;1.40;;;;;;;;;;5049273;28;20028;-66
2022/05/09 05:50:05;;;;;;;4.35;1.40;;;;;;;;;;5048962;28;20516;-67
2022/05/09 05:52:31;;;;;;;4.45;1.60;;;;;;;;;;5049016;28;20021;-70
2022/05/09 05:54:57;;;;;;;3.30;1.50;;;;;;;;;;5048513;28;20025;-68
2022/05/09 05:57:27;;;;;;;3.97;1.60;;;;;;;;;;5049132;28;20025;-67
2022/05/09 05:59:59;;;;;;;5.43;1.60;;;;;;;;;;5048205;28;20036;-70
2022/05/09 06:02:26;;;;;;;4.18;1.40;;;;;;;;;;5048783;28;20794;-66
2022/05/09 06:04:52;;;;;;;3.25;1.60;;;;;;;;;;5048479;28;20021;-69
2022/05/09 06:07:19;;;;;;;6.50;2.60;;;;;;;;;;5048829;28;20036;-70
2022/05/09 06:09:45;;;;;;;9.80;2.67;;;;;;;;;;5048601;28;20040;-69
2022/05/09 06:12:13;;;;;;;5.45;2.10;;;;;;;;;;5048993;28;20059;-66
2022/05/09 06:14:39;;;;;;;7.47;2.33;;;;;;;;;;5047964;28;20420;-68
2022/05/09 06:17:06;;;;;;;7.85;2.45;;;;;;;;;;5049128;28;20496;-67
2022/05/09 06:19:32;;;;;;;7.47;2.40;;;;;;;;;;5048791;28;20025;-65
2022/05/09 06:21:58;;;;;;;7.40;2.08;;;;;;;;;;5048477;28;20036;-68
2022/05/09 06:24:23;;;;;;;8.73;2.25;;;;;;;;;;5048461;28;20048;-69
2022/05/09 06:26:50;;;;;;;6.97;2.25;;;;;;;;;;5048775;28;20523;-71
2022/05/09 06:29:15;;;;;;;3.80;1.90;;;;;;;;;;5048614;28;20504;-65
2022/05/09 06:31:41;;;;;;;5.47;1.60;;;;;;;;;;5052099;28;20024;-66
2022/05/09 06:34:11;;;;;;;8.32;1.73;;;;;;;;;;5052357;28;20021;-69
2022/05/09 06:36:37;;;;;;;7.07;1.70;;;;;;;;;;5051828;28;20016;-68
2022/05/09 06:39:04;;;;;;;4.68;1.75;;;;;;;;;;5052255;28;20021;-71
2022/05/09 06:41:29;;;;;;;9.70;1.80;;;;;;;;;;5051999;28;20115;-70
2022/05/09 06:43:55;;;;;;;5.53;1.92;;;;;;;;;;5051921;28;20409;-71
2022/05/09 06:46:20;;;;;;;4.85;1.85;;;;;;;;;;5051573;28;20035;-72
2022/05/09 06:48:47;;;;;;;6.50;1.80;;;;;;;;;;5052056;28;20128;-70
2022/05/09 06:51:13;;;;;;;4.93;1.75;;;;;;;;;;5051537;28;20492;-70
2022/05/09 06:53:38;;;;;;;7.82;1.80;;;;;;;;;;5051906;28;20036;-69
2022/05/09 06:56:04;;;;;;;8.63;2.20;;;;;;;;;;5051316;28;20041;-69
2022/05/09 06:58:31;;;;;;;5.47;1.80;;;;;;;;;;5046188;28;20602;-68
2022/05/09 07:00:57;;;;;;;21.20;3.13;;;;;;;;;;5050685;28;20029;-70
2022/05/09 07:03:23;;;;;;;17.02;2.88;;;;;;;;;;5049847;28;20025;-69
2022/05/09 07:05:51;;;;;;;8.88;2.08;;;;;;;;;;5034352;28;20321;-72
2022/05/09 07:08:18;;;;;;;5.82;1.80;;;;;;;;;;5062351;28;20055;-72
2022/05/09 07:10:44;;;;;;;13.52;2.10;;;;;;;;;;5063270;28;20032;-72
2022/05/09 07:13:10;;;;;;;10.80;2.25;;;;;;;;;;5055681;28;20037;-72
2022/05/09 07:15:36;;;;;;;5.55;1.52;;;;;;;;;;5050571;28;20029;-71
2022/05/09 07:18:03;;;;;;;7.95;2.00;;;;;;;;;;5051608;28;20037;-69
2022/05/09 07:20:30;;;;;;;5.75;1.77;;;;;;;;;;5051081;28;20025;-72
2022/05/09 07:23:01;;;;;;;4.47;1.67;;;;;;;;;;5051299;28;20104;-70
2022/05/09 07:25:27;;;;;;;10.57;1.80;;;;;;;;;;5050625;28;20475;-74
2022/05/09 07:27:53;;;;;;;3.65;1.60;;;;;;;;;;5051087;28;20544;-70
2022/05/09 07:30:20;;;;;;;5.70;1.60;;;;;;;;;;5050816;28;20032;-70
2022/05/09 07:32:46;;;;;;;4.72;1.42;;;;;;;;;;5051264;28;20103;-69
2022/05/09 07:35:15;;;;;;;27.83;3.30;;;;;;;;;;5050888;28;20124;-69
2022/05/09 07:37:40;;;;;;;6.10;1.65;;;;;;;;;;5051013;28;20472;-71
2022/05/09 07:40:10;;;;;;;5.72;1.65;;;;;;;;;;5051061;28;20032;-70
2022/05/09 07:42:35;;;;;;;5.18;1.55;;;;;;;;;;5044737;28;20128;-69
2022/05/09 07:45:02;;;;;;;7.13;1.60;;;;;;;;;;5041445;28;20133;-66
2022/05/09 07:47:27;;;;;;;5.25;1.70;;;;;;;;;;5037383;28;20112;-65
2022/05/09 07:49:53;;;;;;;4.38;1.52;;;;;;;;;;5030723;28;20528;-65
2022/05/09 07:52:18;;;;;;;6.35;1.80;;;;;;;;;;5048464;28;20523;-73
2022/05/09 07:54:46;;;;;;;8.20;1.98;;;;;;;;;;5050013;28;20041;-68
2022/05/09 07:57:12;;;;;;;4.80;1.65;;;;;;;;;;5049427;28;20040;-68
2022/05/09 07:59:37;;;;;;;5.80;1.45;;;;;;;;;;5049267;28;20025;-70
2022/05/09 08:02:03;;;;;;;4.93;1.38;;;;;;;;;;5050418;28;20096;-70
2022/05/09 08:04:28;;;;;;;7.65;1.40;;;;;;;;;;5050387;28;20495;-72
2022/05/09 08:06:53;;;;;;;3.13;1.40;;;;;;;;;;5050078;28;20040;-69
2022/05/09 08:09:19;;;;;;;6.85;1.40;;;;;;;;;;5051038;28;20037;-67
2022/05/09 08:11:45;;;;;;;3.38;1.23;;;;;;;;;;5065631;28;20347;-69
2022/05/09 08:14:11;;;;;;;5.47;1.40;;;;;;;;;;5081712;28;20095;-68
2022/05/09 08:16:38;;;;;;;3.83;1.48;;;;;;;;;;5075889;28;20410;-66
2022/05/09 08:19:04;;;;;;;4.50;1.50;;;;;;;;;;5069744;28;20029;-65
2022/05/09 08:21:30;;;;;;;6.20;1.50;;;;;;;;;;5069739;28;20024;-69
2022/05/09 08:23:56;;;;;;;5.15;1.50;;;;;;;;;;5070024;28;20032;-70
2022/05/09 08:26:22;;;;;;;5.53;1.50;;;;;;;;;;5069820;28;20483;-66
2022/05/09 08:28:48;;;;;;;3.65;1.50;;;;;;;;;;5070220;28;20066;-65
2022/05/09 08:31:18;;;;;;;4.78;1.40;;;;;;;;;;5069352;28;20028;-69
2022/05/09 08:33:48;;;;;;;5.37;1.40;;;;;;;;;;5069967;28;20066;-64
2022/05/09 08:36:45;;;;;;;7.30;1.50;;;;;;;;;;5069547;28;20056;-64
2022/05/09 08:39:00;;;;;;;5.10;1.50;;;;;;;;;;5069618;28;20037;-66
2022/05/09 08:41:28;;;;;;;6.80;1.50;;;;;;;;;;5069521;28;20483;-68
2022/05/09 08:44:10;;;;;;;5.05;1.48;;;;;;;;;;5069502;28;20051;-65
2022/05/09 08:47:00;;;;;;;3.83;1.45;;;;;;;;;;5068958;28;20045;-65
2022/05/09 08:49:55;;;;;;;3.40;1.45;;;;;;;;;;5069844;28;20094;-65
2022/05/09 08:52:39;;;;;;;7.18;1.75;;;;;;;;;;5024507;28;20048;-65
2022/05/09 08:55:06;;;;;;;6.10;1.48;;;;;;;;;;5069635;28;20514;-66
2022/05/09 08:57:38;;;;;;;8.27;2.00;;;;;;;;;;5069129;28;20054;-65
2022/05/09 09:00:09;;;;;;;6.05;1.60;;;;;;;;;;5069445;28;20032;-64
2022/05/09 09:02:47;;;;;;;5.65;1.80;;;;;;;;;;5069081;28;20024;-70
2022/05/09 09:05:19;;;;;;;8.23;2.20;;;;;;;;;;5069460;28;20399;-67
2022/05/09 09:08:10;;;;;;;4.00;1.40;;;;;;;;;;5069208;28;20038;-65
2022/05/09 09:10:48;;;;;;;4.32;1.63;;;;;;;;;;5069444;28;20492;-68
2022/05/09 09:13:47;;;;;;;3.40;1.60;;;;;;;;;;5069196;28;20507;-65
2022/05/09 09:16:12;;;;;;;3.92;1.83;;;;;;;;;;5068936;28;20240;-67
2022/05/09 09:18:47;;;;;;;3.78;1.40;;;;;;;;;;5069322;28;20137;-67
2022/05/09 09:21:36;;;;;;;6.63;1.70;;;;;;;;;;5069473;28;20024;-64
2022/05/09 09:24:20;;;;;;;6.00;1.60;;;;;;;;;;5069760;28;20024;-66
2022/05/09 09:27:00;;;;;;;4.57;1.50;;;;;;;;;;5068888;28;20039;-65
2022/05/09 09:29:45;;;;;;;7.13;1.65;;;;;;;;;;5068861;28;20036;-68
2022/05/09 09:32:14;;;;;;;5.35;1.38;;;;;;;;;;5068926;28;20067;-64
2022/05/09 09:35:00;;;;;;;5.22;1.50;;;;;;;;;;5051208;28;20078;-69
2022/05/09 09:37:33;;;;;;;7.97;1.98;;;;;;;;;;5068708;28;20086;-68
2022/05/09 09:39:58;;;;;;;4.40;1.48;;;;;;;;;;5069339;28;20415;-65
2022/05/09 09:42:24;;;;;;;5.97;1.50;;;;;;;;;;5068742;28;20055;-65
2022/05/09 09:44:51;;;;;;;4.78;1.63;;;;;;;;;;5068992;28;20021;-69
2022/05/09 09:47:19;;;;;;;4.10;1.48;;;;;;;;;;5068593;28;20111;-65
2022/05/09 09:49:48;;;;;;;3.88;1.60;;;;;;;;;;5069025;28;20024;-65
2022/05/09 09:52:30;;;;;;;4.20;1.50;;;;;;;;;;5069006;28;20090;-64
2022/05/09 09:55:08;;;;;;;5.63;1.30;;;;;;;;;;5069083;28;20391;-69
2022/05/09 09:57:36;;;;;;;3.20;1.63;;;;;;;;;;5068922;28;20377;-68
2022/05/09 10:00:14;;;;;;;6.68;1.67;;;;;;;;;;5068895;28;20033;-64
2022/05/09 10:02:39;;;;;;;3.25;1.40;;;;;;;;;;5068759;28;20074;-64
2022/05/09 10:05:12;;;;;;;4.95;2.00;;;;;;;;;;5069955;28;20033;-64
2022/05/09 10:07:39;;;;;;;7.43;1.70;;;;;;;;;;5072571;28;20107;-68
2022/05/09 10:10:10;;;;;;;5.47;2.00;;;;;;;;;;5072963;28;20020;-64
2022/05/09 10:12:39;;;;;;;8.40;1.70;;;;;;;;;;5072587;28;20495;-65
2022/05/09 10:15:29;;;;;;;2.58;1.80;;;;;;;;;;5072318;28;20041;-66
2022/05/09 10:17:56;;;;;;;5.60;1.80;;;;;;;;;;5072167;28;20060;-64
2022/05/09 10:20:34;;;;;;;6.82;2.10;;;;;;;;;;5072425;28;20021;-69
2022/05/09 10:26:18;;;;;;;6.63;1.80;;;;;;;;;;5072431;28;20096;-68
2022/05/09 10:28:46;;;;;;;6.88;1.85;;;;;;;;;;5072424;28;20039;-68
2022/05/09 10:31:26;;;;;;;4.88;2.20;;;;;;;;;;5072073;28;20020;-68
2022/05/09 10:34:00;;;;;;;6.00;1.95;;;;;;;;;;5071928;28;20502;-64
2022/05/09 10:36:54;;;;;;;3.60;1.98;;;;;;;;;;5071926;28;20024;-69
2022/05/09 10:39:26;;;;;;;3.72;1.90;;;;;;;;;;5071969;28;20027;-63
2022/05/09 10:42:01;;;;;;;4.72;1.80;;;;;;;;;;5072076;28;20024;-68
2022/05/09 10:44:45;;;;;;;6.47;2.22;;;;;;;;;;5071603;28;20062;-64
2022/05/09 10:47:49;;;;;;;4.68;2.20;;;;;;;;;;5054161;28;20067;-67
2022/05/09 10:50:14;;;;;;;5.10;2.20;;;;;;;;;;5072025;28;20120;-65
2022/05/09 10:53:03;;;;;;;6.38;2.03;;;;;;;;;;5071858;28;20099;-67
2022/05/09 10:55:46;;;;;;;7.45;2.28;;;;;;;;;;5071862;28;20036;-68
2022/05/09 10:58:43;;;;;;;7.15;2.10;;;;;;;;;;5071429;28;20046;-65
2022/05/09 11:01:16;;;;;;;5.10;2.10;;;;;;;;;;5071616;28;20024;-64
2022/05/09 11:03:44;;;;;;;7.20;2.30;;;;;;;;;;5072134;28;20085;-69
2022/05/09 11:06:16;;;;;;;7.03;2.30;;;;;;;;;;5071535;28;20093;-66
2022/05/09 11:08:57;;;;;;;3.90;2.13;;;;;;;;;;5053510;28;20029;-70
2022/05/09 11:12:02;;;;;;;4.97;2.22;;;;;;;;;;5071602;28;20051;-69
2022/05/09 11:14:46;;;;;;;5.55;1.95;;;;;;;;;;5070966;28;20059;-65
2022/05/09 11:17:31;;;;;;;6.05;2.10;;;;;;;;;;5071169;28;20464;-65
2022/05/09 11:20:18;;;;;;;5.35;2.05;;;;;;;;;;5071418;28;20024;-65
2022/05/09 11:23:04;;;;;;;8.02;2.47;;;;;;;;;;5071437;28;20036;-68
2022/05/09 11:25:44;;;;;;;6.85;2.30;;;;;;;;;;5071497;28;20044;-69
2022/05/09 11:28:31;;;;;;;5.38;1.92;;;;;;;;;;5070839;28;20519;-66
2022/05/09 11:31:15;;;;;;;4.40;2.65;;;;;;;;;;5071109;28;20181;-65
2022/05/09 11:34:17;;;;;;;4.00;2.05;;;;;;;;;;5071005;28;20021;-64
2022/05/09 11:37:12;;;;;;;4.35;2.30;;;;;;;;;;5070940;28;20036;-64
2022/05/09 11:39:51;;;;;;;4.97;2.10;;;;;;;;;;5071047;28;20025;-68
2022/05/09 11:46:00;;;;;;;5.22;2.63;;;;;;;;;;5070928;28;20062;-65
2022/05/09 11:48:47;;;;;;;6.20;2.67;;;;;;;;;;5060367;28;20480;-69
2022/05/09 11:51:37;;;;;;;5.95;2.72;;;;;;;;;;5070858;28;20069;-69
2022/05/09 11:54:13;;;;;;;5.70;2.88;;;;;;;;;;5070909;28;20078;-71
2022/05/09 11:56:43;;;;;;;6.63;2.50;;;;;;;;;;5070955;28;20020;-69
2022/05/09 11:59:21;;;;;;;7.60;3.03;;;;;;;;;;5070683;28;20023;-64
2022/05/09 12:02:06;;;;;;;6.13;2.50;;;;;;;;;;5070594;28;20036;-69
2022/05/09 12:04:41;;;;;;;6.00;2.80;;;;;;;;;;5070223;28;20029;-65
2022/05/09 12:07:26;;;;;;;5.60;3.00;;;;;;;;;;5070094;28;20028;-67
2022/05/09 12:10:15;;;;;;;6.80;3.22;;;;;;;;;;5070358;28;20078;-71
2022/05/09 12:12:56;;;;;;;5.07;2.92;;;;;;;;;;5070511;28;20140;-66
2022/05/09 12:15:21;;;;;;;5.13;2.90;;;;;;;;;;5069952;28;20037;-68
2022/05/09 12:18:07;;;;;;;7.22;2.95;;;;;;;;;;5070161;28;20025;-68
2022/05/09 12:20:38;;;;;;;6.35;3.28;;;;;;;;;;5018354;28;20039;-69
2022/05/09 12:23:11;;;;;;;5.28;2.90;;;;;;;;;;5070177;28;20527;-66
2022/05/09 12:25:38;;;;;;;5.65;3.35;;;;;;;;;;5069825;28;20020;-69
2022/05/09 12:28:06;;;;;;;4.18;3.10;;;;;;;;;;5069484;28;20032;-67
2022/05/09 12:30:54;;;;;;;6.22;3.20;;;;;;;;;;5070015;28;20035;-66
2022/05/09 12:33:36;;;;;;;7.20;3.40;;;;;;;;;;5070176;28;20028;-66
2022/05/09 12:36:10;;;;;;;7.68;3.30;;;;;;;;;;5069868;28;20029;-69
2022/05/09 12:38:39;;;;;;;7.30;3.38;;;;;;;;;;5069580;28;20437;-65
2022/05/09 12:41:25;;;;;;;5.07;3.20;;;;;;;;;;5069670;28;20029;-68
2022/05/09 12:43:51;;;;;;;5.68;3.20;;;;;;;;;;5069444;28;20045;-67
2022/05/09 12:46:34;;;;;;;6.55;3.17;;;;;;;;;;5069512;28;20449;-65
2022/05/09 12:49:02;;;;;;;6.82;3.17;;;;;;;;;;5070012;28;20044;-64
2022/05/09 12:51:31;;;;;;;6.68;3.28;;;;;;;;;;5069939;28;20380;-65
2022/05/09 12:53:58;;;;;;;7.30;3.00;;;;;;;;;;5069971;28;20116;-64
2022/05/09 12:56:27;;;;;;;8.57;3.20;;;;;;;;;;5069782;28;20075;-70
2022/05/09 12:59:07;;;;;;;6.85;3.40;;;;;;;;;;5069183;28;20037;-71
2022/05/09 13:01:33;;;;;;;8.73;3.20;;;;;;;;;;5069118;28;20406;-66
2022/05/09 13:04:02;;;;;;;6.47;3.05;;;;;;;;;;5069817;28;20548;-65
2022/05/09 13:06:35;;;;;;;5.50;3.00;;;;;;;;;;5069225;28;20109;-71
2022/05/09 13:09:23;;;;;;;6.53;3.08;;;;;;;;;;5069537;28;20029;-65
2022/05/09 13:11:53;;;;;;;4.93;2.80;;;;;;;;;;5069717;28;20027;-65
2022/05/09 13:14:27;;;;;;;5.05;2.88;;;;;;;;;;5068767;28;20033;-67
2022/05/09 13:16:57;;;;;;;5.07;3.13;;;;;;;;;;5069129;28;20467;-67
2022/05/09 13:19:24;;;;;;;8.25;3.33;;;;;;;;;;5069171;28;20055;-66
2022/05/09 13:21:50;;;;;;;6.78;3.25;;;;;;;;;;5069391;28;20025;-65
2022/05/09 13:24:29;;;;;;;5.55;2.83;;;;;;;;;;5069347;28;20471;-65
2022/05/09 13:27:01;;;;;;;7.07;3.20;;;;;;;;;;5069050;28;20037;-68
2022/05/09 13:29:37;;;;;;;6.07;3.17;;;;;;;;;;5068723;28;20100;-67
2022/05/09 13:32:03;;;;;;;5.43;3.20;;;;;;;;;;5069488;28;20020;-64
2022/05/09 13:34:31;;;;;;;7.68;2.97;;;;;;;;;;5069076;28;20024;-64
2022/05/09 13:36:57;;;;;;;8.07;3.25;;;;;;;;;;5069129;28;20024;-64
2022/05/09 13:39:37;;;;;;;6.50;2.88;;;;;;;;;;5069196;28;20029;-68
2022/05/09 13:42:32;;;;;;;5.28;2.80;;;;;;;;;;5073301;28;20400;-70
2022/05/09 13:45:00;;;;;;;7.65;3.00;;;;;;;;;;5072960;28;20029;-65
2022/05/09 13:47:27;;;;;;;5.30;3.17;;;;;;;;;;5072845;28;20036;-68
2022/05/09 13:50:01;;;;;;;7.53;3.40;;;;;;;;;;5072765;28;20540;-68
2022/05/09 13:52:35;;;;;;;7.15;3.38;;;;;;;;;;5073269;28;20120;-64
2022/05/09 13:55:03;;;;;;;5.55;3.20;;;;;;;;;;5072945;28;20510;-67
2022/05/09 13:57:28;;;;;;;4.85;2.90;;;;;;;;;;5072799;28;20107;-66
2022/05/09 14:00:17;;;;;;;4.80;3.00;;;;;;;;;;5072775;28;20194;-67
2022/05/09 14:02:44;;;;;;;7.03;3.00;;;;;;;;;;5072654;28;20602;-65
2022/05/09 14:05:18;;;;;;;7.07;3.15;;;;;;;;;;5072785;28;20021;-64
2022/05/09 14:07:46;;;;;;;3.95;3.08;;;;;;;;;;5072111;28;20032;-68
2022/05/09 14:10:39;;;;;;;6.43;3.00;;;;;;;;;;5072518;28;20028;-64
2022/05/09 14:13:23;;;;;;;3.40;2.50;;;;;;;;;;5072772;28;20025;-67
2022/05/09 14:15:57;;;;;;;3.85;2.67;;;;;;;;;;5072035;28;20082;-67
2022/05/09 14:18:32;;;;;;;4.88;2.67;;;;;;;;;;5072310;28;20028;-65
2022/05/09 14:21:02;;;;;;;7.03;2.80;;;;;;;;;;5072253;28;20543;-64
2022/05/09 14:23:27;;;;;;;3.90;2.80;;;;;;;;;;5072930;28;20025;-65
2022/05/09 14:31:39;;;;;;;4.88;2.90;;;;;;;;;;5072555;28;20116;-65
2022/05/09 14:34:51;;;;;;;6.50;3.05;;;;;;;;;;5072210;28;20107;-66
2022/05/09 14:37:48;;;;;;;5.85;3.08;;;;;;;;;;5046872;28;20495;-66
2022/05/09 14:40:25;;;;;;;7.03;2.70;;;;;;;;;;5062205;28;20150;-65
2022/05/09 14:43:07;;;;;;;5.80;2.95;;;;;;;;;;5071821;28;20044;-65
2022/05/09 14:45:38;;;;;;;9.48;2.90;;;;;;;;;;5071470;28;20024;-68
2022/05/09 14:48:19;;;;;;;5.15;3.20;;;;;;;;;;5071892;28;20044;-68
2022/05/09 14:50:54;;;;;;;5.85;2.90;;;;;;;;;;5071249;28;20032;-64
2022/05/09 14:53:27;;;;;;;6.95;2.92;;;;;;;;;;5072211;28;20116;-68
2022/05/09 14:58:49;;;;;;;;;;;;;;;;;;5072290;28;20047;-68
2022/05/09 15:01:14;;;;;;;7.80;2.92;;;;;;;;;;5071237;28;19920;-66
2022/05/09 15:03:45;;;;;;;5.72;2.90;;;;;;;;;;5071722;28;20389;-69
2022/05/09 15:06:12;;;;;;;4.95;3.15;;;;;;;;;;5071501;28;20031;-64
2022/05/09 15:08:38;;;;;;;6.47;2.80;;;;;;;;;;5071587;28;20021;-64
2022/05/09 15:11:12;;;;;;;5.45;2.97;;;;;;;;;;5071512;28;20021;-68
2022/05/09 15:13:41;;;;;;;5.45;2.83;;;;;;;;;;5071637;28;20020;-65
2022/05/09 15:16:10;;;;;;;7.00;2.88;;;;;;;;;;5071099;28;20031;-65
2022/05/09 15:18:36;;;;;;;7.53;2.67;;;;;;;;;;5071284;28;20460;-65
2022/05/09 15:21:02;;;;;;;5.43;2.85;;;;;;;;;;5071412;28;20104;-64
2022/05/09 15:23:28;;;;;;;4.78;2.75;;;;;;;;;;5071535;28;20043;-66
2022/05/09 15:26:00;;;;;;;5.00;2.85;;;;;;;;;;5071537;28;20032;-68
2022/05/09 15:28:30;;;;;;;5.20;3.08;;;;;;;;;;5071372;28;20074;-64